sensor_id;sensor_type;location;lat;lon;timestamp;temperature;humidity
11107;DHT22;5607;48.302;14.294;2024-01-30T00:01:27;2.20;1.00
11107;DHT22;5607;48.302;14.294;2024-01-30T00:04:14;2.20;1.00
11107;DHT22;5607;48.302;14.294;2024-01-30T00:07:01;2.20;1.00
11107;DHT22;5607;48.302;14.294;2024-01-30T00:09:48;2.20;1.00
11107;DHT22;5607;48.302;14.294;2024-01-30T00:12:34;2.20;1.00
11107;DHT22;5607;48.302;14.294;2024-01-30T00:15:21;2.20;1.00
11107;DHT22;5607;48.302;14.294;2024-01-30T00:18:07;2.20;1.00
11107;DHT22;5607;48.302;14.294;2024-01-30T00:20:54;2.20;1.00
11107;DHT22;5607;48.302;14.294;2024-01-30T00:23:40;2.20;1.00
11107;DHT22;5607;48.302;14.294;2024-01-30T00:26:27;2.20;1.00
11107;DHT22;5607;48.302;14.294;2024-01-30T00:29:13;2.30;99.90
11107;DHT22;5607;48.302;14.294;2024-01-30T00:32:05;2.40;99.90
11107;DHT22;5607;48.302;14.294;2024-01-30T00:34:52;2.40;99.90
11107;DHT22;5607;48.302;14.294;2024-01-30T00:37:38;2.40;99.90
11107;DHT22;5607;48.302;14.294;2024-01-30T00:40:25;2.40;99.90
11107;DHT22;5607;48.302;14.294;2024-01-30T00:43:12;2.30;99.90
11107;DHT22;5607;48.302;14.294;2024-01-30T00:45:59;2.30;99.90
11107;DHT22;5607;48.302;14.294;2024-01-30T00:48:46;2.40;99.90
11107;DHT22;5607;48.302;14.294;2024-01-30T00:51:32;2.30;99.90
11107;DHT22;5607;48.302;14.294;2024-01-30T00:54:19;2.40;99.90
11107;DHT22;5607;48.302;14.294;2024-01-30T00:57:05;2.40;99.90
11107;DHT22;5607;48.302;14.294;2024-01-30T00:59:52;2.30;99.90
11107;DHT22;5607;48.302;14.294;2024-01-30T01:02:40;2.40;99.90
11107;DHT22;5607;48.302;14.294;2024-01-30T01:05:28;2.30;99.90
11107;DHT22;5607;48.302;14.294;2024-01-30T01:08:16;2.40;99.90
11107;DHT22;5607;48.302;14.294;2024-01-30T01:11:04;2.30;99.90
11107;DHT22;5607;48.302;14.294;2024-01-30T01:13:50;2.30;99.90
11107;DHT22;5607;48.302;14.294;2024-01-30T01:16:37;2.20;1.00
11107;DHT22;5607;48.302;14.294;2024-01-30T01:19:23;2.10;99.90
11107;DHT22;5607;48.302;14.294;2024-01-30T01:22:10;2.10;1.40
11107;DHT22;5607;48.302;14.294;2024-01-30T01:24:57;2.10;1.00
11107;DHT22;5607;48.302;14.294;2024-01-30T01:27:44;2.00;1.00
11107;DHT22;5607;48.302;14.294;2024-01-30T01:30:37;2.00;1.00
11107;DHT22;5607;48.302;14.294;2024-01-30T01:33:24;1.90;1.00
11107;DHT22;5607;48.302;14.294;2024-01-30T01:36:11;1.80;1.00
11107;DHT22;5607;48.302;14.294;2024-01-30T01:38:58;1.70;1.00
11107;DHT22;5607;48.302;14.294;2024-01-30T01:41:44;1.70;1.00
11107;DHT22;5607;48.302;14.294;2024-01-30T01:44:31;1.70;1.00
11107;DHT22;5607;48.302;14.294;2024-01-30T01:47:17;1.80;1.00
11107;DHT22;5607;48.302;14.294;2024-01-30T01:50:04;1.80;1.00
11107;DHT22;5607;48.302;14.294;2024-01-30T01:52:51;1.90;1.00
11107;DHT22;5607;48.302;14.294;2024-01-30T01:55:39;1.90;1.00
11107;DHT22;5607;48.302;14.294;2024-01-30T01:58:26;1.90;1.00
11107;DHT22;5607;48.302;14.294;2024-01-30T02:01:18;1.90;1.00
11107;DHT22;5607;48.302;14.294;2024-01-30T02:07:12;1.90;1.00
11107;DHT22;5607;48.302;14.294;2024-01-30T02:09:58;1.90;1.00
11107;DHT22;5607;48.302;14.294;2024-01-30T02:12:45;1.90;1.00
11107;DHT22;5607;48.302;14.294;2024-01-30T02:15:31;1.90;1.00
11107;DHT22;5607;48.302;14.294;2024-01-30T02:18:19;1.80;1.00
11107;DHT22;5607;48.302;14.294;2024-01-30T02:21:07;1.80;1.00
11107;DHT22;5607;48.302;14.294;2024-01-30T02:23:54;1.80;1.00
11107;DHT22;5607;48.302;14.294;2024-01-30T02:26:42;1.70;1.00
11107;DHT22;5607;48.302;14.294;2024-01-30T02:29:29;1.70;1.00
11107;DHT22;5607;48.302;14.294;2024-01-30T02:32:15;1.70;1.00
11107;DHT22;5607;48.302;14.294;2024-01-30T02:35:02;1.60;1.00
11107;DHT22;5607;48.302;14.294;2024-01-30T02:37:48;1.60;1.00
11107;DHT22;5607;48.302;14.294;2024-01-30T02:40:35;1.60;1.00
11107;DHT22;5607;48.302;14.294;2024-01-30T02:43:21;1.60;1.00
11107;DHT22;5607;48.302;14.294;2024-01-30T02:46:08;1.50;1.00
11107;DHT22;5607;48.302;14.294;2024-01-30T02:48:55;1.50;1.00
11107;DHT22;5607;48.302;14.294;2024-01-30T02:51:41;1.50;1.00
11107;DHT22;5607;48.302;14.294;2024-01-30T02:54:28;1.50;1.00
11107;DHT22;5607;48.302;14.294;2024-01-30T02:57:16;1.50;1.00
11107;DHT22;5607;48.302;14.294;2024-01-30T03:00:03;1.60;1.00
11107;DHT22;5607;48.302;14.294;2024-01-30T03:02:52;1.50;1.00
11107;DHT22;5607;48.302;14.294;2024-01-30T03:05:38;1.50;1.00
11107;DHT22;5607;48.302;14.294;2024-01-30T03:08:25;1.50;1.00
11107;DHT22;5607;48.302;14.294;2024-01-30T03:11:11;1.60;1.00
11107;DHT22;5607;48.302;14.294;2024-01-30T03:13:58;1.70;1.00
11107;DHT22;5607;48.302;14.294;2024-01-30T03:16:46;1.70;1.00
11107;DHT22;5607;48.302;14.294;2024-01-30T03:19:32;1.70;1.00
11107;DHT22;5607;48.302;14.294;2024-01-30T03:22:20;1.80;1.00
11107;DHT22;5607;48.302;14.294;2024-01-30T03:25:07;1.80;1.00
11107;DHT22;5607;48.302;14.294;2024-01-30T03:27:54;1.80;1.00
11107;DHT22;5607;48.302;14.294;2024-01-30T03:30:40;1.90;1.00
11107;DHT22;5607;48.302;14.294;2024-01-30T03:33:27;1.80;1.00
11107;DHT22;5607;48.302;14.294;2024-01-30T03:36:15;1.80;1.00
11107;DHT22;5607;48.302;14.294;2024-01-30T03:39:02;1.80;1.00
11107;DHT22;5607;48.302;14.294;2024-01-30T03:41:49;1.80;1.00
11107;DHT22;5607;48.302;14.294;2024-01-30T03:44:35;1.90;1.00
11107;DHT22;5607;48.302;14.294;2024-01-30T03:47:22;1.80;1.00
11107;DHT22;5607;48.302;14.294;2024-01-30T03:50:08;1.80;1.00
11107;DHT22;5607;48.302;14.294;2024-01-30T03:52:55;1.70;1.00
11107;DHT22;5607;48.302;14.294;2024-01-30T03:55:42;1.70;1.00
11107;DHT22;5607;48.302;14.294;2024-01-30T03:58:28;1.70;1.00
11107;DHT22;5607;48.302;14.294;2024-01-30T04:01:15;1.80;1.00
11107;DHT22;5607;48.302;14.294;2024-01-30T04:04:01;1.80;1.00
11107;DHT22;5607;48.302;14.294;2024-01-30T04:06:48;1.90;1.00
11107;DHT22;5607;48.302;14.294;2024-01-30T04:09:35;1.80;1.00
11107;DHT22;5607;48.302;14.294;2024-01-30T04:12:21;1.80;1.00
11107;DHT22;5607;48.302;14.294;2024-01-30T04:15:08;1.80;1.00
11107;DHT22;5607;48.302;14.294;2024-01-30T04:17:57;1.80;1.00
11107;DHT22;5607;48.302;14.294;2024-01-30T04:20:46;1.80;1.00
11107;DHT22;5607;48.302;14.294;2024-01-30T04:23:32;1.80;1.00
11107;DHT22;5607;48.302;14.294;2024-01-30T04:26:19;1.70;1.00
11107;DHT22;5607;48.302;14.294;2024-01-30T04:29:06;1.70;1.00
11107;DHT22;5607;48.302;14.294;2024-01-30T04:31:52;1.60;1.00
11107;DHT22;5607;48.302;14.294;2024-01-30T04:34:39;1.70;1.00
11107;DHT22;5607;48.302;14.294;2024-01-30T04:37:25;1.70;1.00
11107;DHT22;5607;48.302;14.294;2024-01-30T04:40:12;1.70;1.00
11107;DHT22;5607;48.302;14.294;2024-01-30T04:42:59;1.70;1.00
11107;DHT22;5607;48.302;14.294;2024-01-30T04:45:45;1.70;1.00
11107;DHT22;5607;48.302;14.294;2024-01-30T04:48:32;1.80;1.00
11107;DHT22;5607;48.302;14.294;2024-01-30T04:51:18;1.80;1.00
11107;DHT22;5607;48.302;14.294;2024-01-30T04:54:05;1.80;1.00
11107;DHT22;5607;48.302;14.294;2024-01-30T04:56:51;1.90;1.00
11107;DHT22;5607;48.302;14.294;2024-01-30T04:59:38;1.90;1.00
11107;DHT22;5607;48.302;14.294;2024-01-30T05:02:25;1.90;1.00
11107;DHT22;5607;48.302;14.294;2024-01-30T05:05:11;1.80;1.00
11107;DHT22;5607;48.302;14.294;2024-01-30T05:07:59;1.80;1.00
11107;DHT22;5607;48.302;14.294;2024-01-30T05:10:46;1.80;1.00
11107;DHT22;5607;48.302;14.294;2024-01-30T05:13:33;1.70;1.00
11107;DHT22;5607;48.302;14.294;2024-01-30T05:16:19;1.70;1.00
11107;DHT22;5607;48.302;14.294;2024-01-30T05:19:06;1.60;1.00
11107;DHT22;5607;48.302;14.294;2024-01-30T05:21:52;1.60;1.00
11107;DHT22;5607;48.302;14.294;2024-01-30T05:24:39;1.60;1.00
11107;DHT22;5607;48.302;14.294;2024-01-30T05:27:25;1.60;1.00
11107;DHT22;5607;48.302;14.294;2024-01-30T05:30:12;1.60;1.00
11107;DHT22;5607;48.302;14.294;2024-01-30T05:32:59;1.50;1.00
11107;DHT22;5607;48.302;14.294;2024-01-30T05:35:45;1.50;1.00
11107;DHT22;5607;48.302;14.294;2024-01-30T05:38:32;1.40;1.00
11107;DHT22;5607;48.302;14.294;2024-01-30T05:41:19;1.50;1.00
11107;DHT22;5607;48.302;14.294;2024-01-30T05:44:07;1.50;1.00
11107;DHT22;5607;48.302;14.294;2024-01-30T05:46:53;1.50;1.00
11107;DHT22;5607;48.302;14.294;2024-01-30T05:49:40;1.50;1.00
11107;DHT22;5607;48.302;14.294;2024-01-30T05:52:27;1.50;1.00
11107;DHT22;5607;48.302;14.294;2024-01-30T05:55:13;1.50;1.00
11107;DHT22;5607;48.302;14.294;2024-01-30T05:58:00;1.50;1.00
11107;DHT22;5607;48.302;14.294;2024-01-30T06:00:46;1.50;1.00
11107;DHT22;5607;48.302;14.294;2024-01-30T06:03:33;1.50;1.00
11107;DHT22;5607;48.302;14.294;2024-01-30T06:06:20;1.50;1.00
11107;DHT22;5607;48.302;14.294;2024-01-30T06:09:06;1.50;1.00
11107;DHT22;5607;48.302;14.294;2024-01-30T06:11:56;1.50;1.00
11107;DHT22;5607;48.302;14.294;2024-01-30T06:14:43;1.60;1.00
11107;DHT22;5607;48.302;14.294;2024-01-30T06:17:29;1.60;1.00
11107;DHT22;5607;48.302;14.294;2024-01-30T06:20:16;1.60;1.00
11107;DHT22;5607;48.302;14.294;2024-01-30T06:23:03;1.60;1.00
11107;DHT22;5607;48.302;14.294;2024-01-30T06:25:51;1.60;1.00
11107;DHT22;5607;48.302;14.294;2024-01-30T06:28:37;1.60;1.00
11107;DHT22;5607;48.302;14.294;2024-01-30T06:31:24;1.70;1.00
11107;DHT22;5607;48.302;14.294;2024-01-30T06:34:10;1.70;1.00
11107;DHT22;5607;48.302;14.294;2024-01-30T06:36:58;1.80;1.00
11107;DHT22;5607;48.302;14.294;2024-01-30T06:39:44;1.80;1.00
11107;DHT22;5607;48.302;14.294;2024-01-30T06:42:31;1.80;1.00
11107;DHT22;5607;48.302;14.294;2024-01-30T06:45:17;1.80;1.00
11107;DHT22;5607;48.302;14.294;2024-01-30T06:48:04;1.80;1.00
11107;DHT22;5607;48.302;14.294;2024-01-30T06:50:54;1.70;1.00
11107;DHT22;5607;48.302;14.294;2024-01-30T06:53:41;1.80;1.00
11107;DHT22;5607;48.302;14.294;2024-01-30T06:56:27;1.70;1.00
11107;DHT22;5607;48.302;14.294;2024-01-30T06:59:14;1.80;1.00
11107;DHT22;5607;48.302;14.294;2024-01-30T07:02:01;1.80;1.00
11107;DHT22;5607;48.302;14.294;2024-01-30T07:04:48;1.80;1.00
11107;DHT22;5607;48.302;14.294;2024-01-30T07:07:35;1.80;1.00
11107;DHT22;5607;48.302;14.294;2024-01-30T07:10:22;1.90;1.00
11107;DHT22;5607;48.302;14.294;2024-01-30T07:13:08;1.90;1.00
11107;DHT22;5607;48.302;14.294;2024-01-30T07:15:56;2.00;1.00
11107;DHT22;5607;48.302;14.294;2024-01-30T07:18:43;2.00;1.00
11107;DHT22;5607;48.302;14.294;2024-01-30T07:21:30;1.90;1.40
11107;DHT22;5607;48.302;14.294;2024-01-30T07:24:16;1.90;99.90
11107;DHT22;5607;48.302;14.294;2024-01-30T07:27:03;1.90;99.90
11107;DHT22;5607;48.302;14.294;2024-01-30T07:29:50;2.00;99.90
11107;DHT22;5607;48.302;14.294;2024-01-30T07:32:36;2.10;99.90
11107;DHT22;5607;48.302;14.294;2024-01-30T07:35:24;2.10;99.90
11107;DHT22;5607;48.302;14.294;2024-01-30T07:38:11;2.10;99.90
11107;DHT22;5607;48.302;14.294;2024-01-30T07:40:57;2.20;99.90
11107;DHT22;5607;48.302;14.294;2024-01-30T07:43:44;2.20;99.90
11107;DHT22;5607;48.302;14.294;2024-01-30T07:46:31;2.30;99.90
11107;DHT22;5607;48.302;14.294;2024-01-30T07:49:18;2.40;99.90
11107;DHT22;5607;48.302;14.294;2024-01-30T07:52:04;2.40;99.90
11107;DHT22;5607;48.302;14.294;2024-01-30T07:54:51;2.40;99.90
11107;DHT22;5607;48.302;14.294;2024-01-30T07:57:39;2.40;99.90
11107;DHT22;5607;48.302;14.294;2024-01-30T08:00:26;2.40;99.90
11107;DHT22;5607;48.302;14.294;2024-01-30T08:03:13;2.30;99.90
11107;DHT22;5607;48.302;14.294;2024-01-30T08:06:02;2.30;99.90
11107;DHT22;5607;48.302;14.294;2024-01-30T08:08:49;2.40;99.90
11107;DHT22;5607;48.302;14.294;2024-01-30T08:11:37;2.50;99.90
11107;DHT22;5607;48.302;14.294;2024-01-30T08:14:24;2.60;99.90
11107;DHT22;5607;48.302;14.294;2024-01-30T08:17:10;2.60;99.90
11107;DHT22;5607;48.302;14.294;2024-01-30T08:19:58;2.70;99.90
11107;DHT22;5607;48.302;14.294;2024-01-30T08:22:45;2.80;99.90
11107;DHT22;5607;48.302;14.294;2024-01-30T08:25:32;2.90;99.90
11107;DHT22;5607;48.302;14.294;2024-01-30T08:28:19;3.00;99.90
11107;DHT22;5607;48.302;14.294;2024-01-30T08:31:05;3.00;99.90
11107;DHT22;5607;48.302;14.294;2024-01-30T08:33:52;3.10;99.90
11107;DHT22;5607;48.302;14.294;2024-01-30T08:36:39;3.10;99.90
11107;DHT22;5607;48.302;14.294;2024-01-30T08:39:26;3.00;99.90
11107;DHT22;5607;48.302;14.294;2024-01-30T08:42:13;3.00;99.90
11107;DHT22;5607;48.302;14.294;2024-01-30T08:45:01;3.10;99.90
11107;DHT22;5607;48.302;14.294;2024-01-30T08:47:47;3.30;99.90
11107;DHT22;5607;48.302;14.294;2024-01-30T08:50:34;3.30;99.90
11107;DHT22;5607;48.302;14.294;2024-01-30T08:53:21;3.30;99.90
11107;DHT22;5607;48.302;14.294;2024-01-30T08:56:07;3.30;99.90
11107;DHT22;5607;48.302;14.294;2024-01-30T08:58:54;3.30;99.90
11107;DHT22;5607;48.302;14.294;2024-01-30T09:01:40;3.30;99.90
11107;DHT22;5607;48.302;14.294;2024-01-30T09:04:27;3.20;99.90
11107;DHT22;5607;48.302;14.294;2024-01-30T09:07:13;3.30;99.90
11107;DHT22;5607;48.302;14.294;2024-01-30T09:10:00;3.30;99.90
11107;DHT22;5607;48.302;14.294;2024-01-30T09:12:47;3.40;99.90
11107;DHT22;5607;48.302;14.294;2024-01-30T09:15:34;3.40;99.90
11107;DHT22;5607;48.302;14.294;2024-01-30T09:18:21;3.40;99.90
11107;DHT22;5607;48.302;14.294;2024-01-30T09:21:09;3.30;99.90
11107;DHT22;5607;48.302;14.294;2024-01-30T09:24:01;3.40;99.90
11107;DHT22;5607;48.302;14.294;2024-01-30T09:26:49;3.20;99.90
11107;DHT22;5607;48.302;14.294;2024-01-30T09:29:35;3.30;99.90
11107;DHT22;5607;48.302;14.294;2024-01-30T09:32:22;3.30;99.90
11107;DHT22;5607;48.302;14.294;2024-01-30T09:35:09;3.20;99.90
11107;DHT22;5607;48.302;14.294;2024-01-30T09:37:55;3.40;99.90
11107;DHT22;5607;48.302;14.294;2024-01-30T09:40:44;3.40;99.90
11107;DHT22;5607;48.302;14.294;2024-01-30T09:43:37;3.50;99.90
11107;DHT22;5607;48.302;14.294;2024-01-30T09:46:25;3.50;99.90
11107;DHT22;5607;48.302;14.294;2024-01-30T09:49:17;3.50;99.90
11107;DHT22;5607;48.302;14.294;2024-01-30T09:52:05;3.50;99.90
11107;DHT22;5607;48.302;14.294;2024-01-30T09:54:54;3.50;99.90
11107;DHT22;5607;48.302;14.294;2024-01-30T09:57:41;3.50;99.90
11107;DHT22;5607;48.302;14.294;2024-01-30T10:00:28;3.50;99.90
11107;DHT22;5607;48.302;14.294;2024-01-30T10:03:15;3.50;99.90
11107;DHT22;5607;48.302;14.294;2024-01-30T10:06:01;3.50;99.90
11107;DHT22;5607;48.302;14.294;2024-01-30T10:11:55;3.60;99.90
11107;DHT22;5607;48.302;14.294;2024-01-30T10:14:43;3.60;99.90
11107;DHT22;5607;48.302;14.294;2024-01-30T10:17:30;3.60;99.90
11107;DHT22;5607;48.302;14.294;2024-01-30T10:20:17;3.60;99.90
11107;DHT22;5607;48.302;14.294;2024-01-30T10:23:05;3.70;99.90
11107;DHT22;5607;48.302;14.294;2024-01-30T10:25:52;3.70;99.90
11107;DHT22;5607;48.302;14.294;2024-01-30T10:28:38;3.70;99.90
11107;DHT22;5607;48.302;14.294;2024-01-30T10:31:25;3.80;99.90
11107;DHT22;5607;48.302;14.294;2024-01-30T10:34:11;3.90;99.90
11107;DHT22;5607;48.302;14.294;2024-01-30T10:37:08;4.00;99.90
11107;DHT22;5607;48.302;14.294;2024-01-30T10:40:02;3.90;99.90
11107;DHT22;5607;48.302;14.294;2024-01-30T10:42:52;3.80;99.90
11107;DHT22;5607;48.302;14.294;2024-01-30T10:45:41;3.90;99.90
11107;DHT22;5607;48.302;14.294;2024-01-30T10:48:33;4.00;99.90
11107;DHT22;5607;48.302;14.294;2024-01-30T10:51:24;4.10;99.90
11107;DHT22;5607;48.302;14.294;2024-01-30T10:54:12;4.10;99.90
11107;DHT22;5607;48.302;14.294;2024-01-30T10:56:59;4.10;99.90
11107;DHT22;5607;48.302;14.294;2024-01-30T10:59:51;4.10;99.90
11107;DHT22;5607;48.302;14.294;2024-01-30T11:02:42;4.10;99.90
11107;DHT22;5607;48.302;14.294;2024-01-30T11:05:30;4.00;99.90
11107;DHT22;5607;48.302;14.294;2024-01-30T11:08:26;4.10;99.90
11107;DHT22;5607;48.302;14.294;2024-01-30T11:11:14;4.00;99.90
11107;DHT22;5607;48.302;14.294;2024-01-30T11:14:02;4.20;99.90
11107;DHT22;5607;48.302;14.294;2024-01-30T11:16:49;4.20;99.90
11107;DHT22;5607;48.302;14.294;2024-01-30T11:19:35;4.30;99.90
11107;DHT22;5607;48.302;14.294;2024-01-30T11:22:22;4.30;99.90
11107;DHT22;5607;48.302;14.294;2024-01-30T11:25:15;4.30;99.90
11107;DHT22;5607;48.302;14.294;2024-01-30T11:28:03;4.30;99.90
11107;DHT22;5607;48.302;14.294;2024-01-30T11:30:50;4.30;99.90
11107;DHT22;5607;48.302;14.294;2024-01-30T11:33:36;4.40;99.90
11107;DHT22;5607;48.302;14.294;2024-01-30T11:36:25;4.40;99.90
11107;DHT22;5607;48.302;14.294;2024-01-30T11:39:17;4.40;99.90
11107;DHT22;5607;48.302;14.294;2024-01-30T11:42:06;4.50;99.90
11107;DHT22;5607;48.302;14.294;2024-01-30T11:44:55;4.50;99.90
11107;DHT22;5607;48.302;14.294;2024-01-30T11:47:41;4.30;99.90
11107;DHT22;5607;48.302;14.294;2024-01-30T11:50:28;4.40;99.90
11107;DHT22;5607;48.302;14.294;2024-01-30T11:53:24;4.40;99.90
11107;DHT22;5607;48.302;14.294;2024-01-30T11:56:12;4.40;99.90
11107;DHT22;5607;48.302;14.294;2024-01-30T11:58:59;4.50;99.90
11107;DHT22;5607;48.302;14.294;2024-01-30T12:01:46;4.60;99.90
11107;DHT22;5607;48.302;14.294;2024-01-30T12:04:33;4.60;99.90
11107;DHT22;5607;48.302;14.294;2024-01-30T12:07:20;4.40;99.90
11107;DHT22;5607;48.302;14.294;2024-01-30T12:10:08;4.40;99.90
11107;DHT22;5607;48.302;14.294;2024-01-30T12:12:55;4.30;99.90
11107;DHT22;5607;48.302;14.294;2024-01-30T12:15:43;4.40;99.90
11107;DHT22;5607;48.302;14.294;2024-01-30T12:18:29;4.40;99.90
11107;DHT22;5607;48.302;14.294;2024-01-30T12:21:16;4.50;99.90
11107;DHT22;5607;48.302;14.294;2024-01-30T12:24:04;4.60;99.90
11107;DHT22;5607;48.302;14.294;2024-01-30T12:26:56;4.60;99.90
11107;DHT22;5607;48.302;14.294;2024-01-30T12:29:44;4.40;99.90
11107;DHT22;5607;48.302;14.294;2024-01-30T12:32:31;4.50;99.90
11107;DHT22;5607;48.302;14.294;2024-01-30T12:35:18;4.60;99.90
11107;DHT22;5607;48.302;14.294;2024-01-30T12:38:06;4.70;99.90
11107;DHT22;5607;48.302;14.294;2024-01-30T12:40:56;4.80;99.90
11107;DHT22;5607;48.302;14.294;2024-01-30T12:43:43;4.80;99.90
11107;DHT22;5607;48.302;14.294;2024-01-30T12:46:30;4.80;99.90
11107;DHT22;5607;48.302;14.294;2024-01-30T12:49:17;4.80;99.90
11107;DHT22;5607;48.302;14.294;2024-01-30T12:52:04;4.80;99.90
11107;DHT22;5607;48.302;14.294;2024-01-30T12:54:51;4.70;99.90
11107;DHT22;5607;48.302;14.294;2024-01-30T12:57:38;4.80;99.90
11107;DHT22;5607;48.302;14.294;2024-01-30T13:00:25;4.80;99.90
11107;DHT22;5607;48.302;14.294;2024-01-30T13:03:12;4.90;99.90
11107;DHT22;5607;48.302;14.294;2024-01-30T13:05:59;4.90;99.90
11107;DHT22;5607;48.302;14.294;2024-01-30T13:08:46;4.90;99.90
11107;DHT22;5607;48.302;14.294;2024-01-30T13:11:32;5.00;99.90
11107;DHT22;5607;48.302;14.294;2024-01-30T13:14:19;4.80;99.90
11107;DHT22;5607;48.302;14.294;2024-01-30T13:17:06;4.80;99.90
11107;DHT22;5607;48.302;14.294;2024-01-30T13:19:52;4.70;99.90
11107;DHT22;5607;48.302;14.294;2024-01-30T13:22:40;4.80;99.90
11107;DHT22;5607;48.302;14.294;2024-01-30T13:25:26;4.90;99.90
11107;DHT22;5607;48.302;14.294;2024-01-30T13:28:13;4.80;99.90
11107;DHT22;5607;48.302;14.294;2024-01-30T13:30:59;4.70;99.90
11107;DHT22;5607;48.302;14.294;2024-01-30T13:33:46;4.70;99.90
11107;DHT22;5607;48.302;14.294;2024-01-30T13:36:33;4.80;99.90
11107;DHT22;5607;48.302;14.294;2024-01-30T13:39:20;4.70;99.90
11107;DHT22;5607;48.302;14.294;2024-01-30T13:42:06;4.40;99.90
11107;DHT22;5607;48.302;14.294;2024-01-30T13:44:53;4.40;99.90
11107;DHT22;5607;48.302;14.294;2024-01-30T13:47:39;4.50;99.90
11107;DHT22;5607;48.302;14.294;2024-01-30T13:50:26;4.60;99.90
11107;DHT22;5607;48.302;14.294;2024-01-30T13:53:13;4.60;99.90
11107;DHT22;5607;48.302;14.294;2024-01-30T13:56:00;4.40;99.90
11107;DHT22;5607;48.302;14.294;2024-01-30T13:58:49;4.30;99.90
11107;DHT22;5607;48.302;14.294;2024-01-30T14:01:36;4.40;99.90
11107;DHT22;5607;48.302;14.294;2024-01-30T14:04:22;4.30;99.90
11107;DHT22;5607;48.302;14.294;2024-01-30T14:07:09;4.30;99.90
11107;DHT22;5607;48.302;14.294;2024-01-30T14:09:56;4.30;99.90
11107;DHT22;5607;48.302;14.294;2024-01-30T14:12:42;4.10;99.90
11107;DHT22;5607;48.302;14.294;2024-01-30T14:15:34;4.20;99.90
11107;DHT22;5607;48.302;14.294;2024-01-30T14:18:20;4.20;99.90
11107;DHT22;5607;48.302;14.294;2024-01-30T14:21:07;4.20;99.90
11107;DHT22;5607;48.302;14.294;2024-01-30T14:23:54;4.30;99.90
11107;DHT22;5607;48.302;14.294;2024-01-30T14:26:40;4.30;99.90
11107;DHT22;5607;48.302;14.294;2024-01-30T14:29:27;4.20;99.90
11107;DHT22;5607;48.302;14.294;2024-01-30T14:32:13;4.10;99.90
11107;DHT22;5607;48.302;14.294;2024-01-30T14:35:00;4.20;99.90
11107;DHT22;5607;48.302;14.294;2024-01-30T14:37:48;4.10;99.90
11107;DHT22;5607;48.302;14.294;2024-01-30T14:43:41;4.00;99.90
11107;DHT22;5607;48.302;14.294;2024-01-30T14:46:28;4.00;99.90
11107;DHT22;5607;48.302;14.294;2024-01-30T14:49:15;4.00;99.90
11107;DHT22;5607;48.302;14.294;2024-01-30T14:52:01;4.10;99.90
11107;DHT22;5607;48.302;14.294;2024-01-30T14:54:51;3.90;99.90
11107;DHT22;5607;48.302;14.294;2024-01-30T14:57:37;4.00;99.90
11107;DHT22;5607;48.302;14.294;2024-01-30T15:00:24;4.10;99.90
11107;DHT22;5607;48.302;14.294;2024-01-30T15:03:11;4.10;99.90
11107;DHT22;5607;48.302;14.294;2024-01-30T15:05:58;4.10;99.90
11107;DHT22;5607;48.302;14.294;2024-01-30T15:08:44;4.10;99.90
11107;DHT22;5607;48.302;14.294;2024-01-30T15:11:31;4.20;99.90
11107;DHT22;5607;48.302;14.294;2024-01-30T15:14:20;4.10;99.90
11107;DHT22;5607;48.302;14.294;2024-01-30T15:17:06;4.00;99.90
11107;DHT22;5607;48.302;14.294;2024-01-30T15:19:53;4.10;99.90
11107;DHT22;5607;48.302;14.294;2024-01-30T15:22:40;4.10;99.90
11107;DHT22;5607;48.302;14.294;2024-01-30T15:25:26;4.00;99.90
11107;DHT22;5607;48.302;14.294;2024-01-30T15:28:15;4.10;99.90
11107;DHT22;5607;48.302;14.294;2024-01-30T15:31:02;4.00;99.90
11107;DHT22;5607;48.302;14.294;2024-01-30T15:33:48;4.00;99.90
11107;DHT22;5607;48.302;14.294;2024-01-30T15:36:35;3.90;99.90
11107;DHT22;5607;48.302;14.294;2024-01-30T15:39:23;3.90;99.90
11107;DHT22;5607;48.302;14.294;2024-01-30T15:42:10;3.80;99.90
11107;DHT22;5607;48.302;14.294;2024-01-30T15:44:57;3.60;99.90
11107;DHT22;5607;48.302;14.294;2024-01-30T15:47:45;3.60;99.90
11107;DHT22;5607;48.302;14.294;2024-01-30T15:50:31;3.70;99.90
11107;DHT22;5607;48.302;14.294;2024-01-30T15:53:21;3.70;99.90
11107;DHT22;5607;48.302;14.294;2024-01-30T15:56:08;3.60;99.90
11107;DHT22;5607;48.302;14.294;2024-01-30T15:58:55;3.70;99.90
11107;DHT22;5607;48.302;14.294;2024-01-30T16:01:41;3.80;99.90
11107;DHT22;5607;48.302;14.294;2024-01-30T16:04:32;3.70;99.90
11107;DHT22;5607;48.302;14.294;2024-01-30T16:07:18;3.60;99.90
11107;DHT22;5607;48.302;14.294;2024-01-30T16:10:05;3.70;99.90
11107;DHT22;5607;48.302;14.294;2024-01-30T16:12:53;3.60;99.90
11107;DHT22;5607;48.302;14.294;2024-01-30T16:15:41;3.60;99.90
11107;DHT22;5607;48.302;14.294;2024-01-30T16:18:29;3.60;99.90
11107;DHT22;5607;48.302;14.294;2024-01-30T16:21:17;3.50;99.90
11107;DHT22;5607;48.302;14.294;2024-01-30T16:24:03;3.40;99.90
11107;DHT22;5607;48.302;14.294;2024-01-30T16:26:50;3.40;99.90
11107;DHT22;5607;48.302;14.294;2024-01-30T16:29:36;3.40;99.90
11107;DHT22;5607;48.302;14.294;2024-01-30T16:32:23;3.30;99.90
11107;DHT22;5607;48.302;14.294;2024-01-30T16:35:10;3.40;99.90
11107;DHT22;5607;48.302;14.294;2024-01-30T16:37:56;3.40;99.90
11107;DHT22;5607;48.302;14.294;2024-01-30T16:40:43;3.50;99.90
11107;DHT22;5607;48.302;14.294;2024-01-30T16:43:30;3.50;99.90
11107;DHT22;5607;48.302;14.294;2024-01-30T16:46:17;3.40;99.90
11107;DHT22;5607;48.302;14.294;2024-01-30T16:49:04;3.30;99.90
11107;DHT22;5607;48.302;14.294;2024-01-30T16:51:50;3.40;99.90
11107;DHT22;5607;48.302;14.294;2024-01-30T16:54:37;3.30;99.90
11107;DHT22;5607;48.302;14.294;2024-01-30T16:57:23;3.20;99.90
11107;DHT22;5607;48.302;14.294;2024-01-30T17:00:10;3.20;99.90
11107;DHT22;5607;48.302;14.294;2024-01-30T17:02:57;3.20;99.90
11107;DHT22;5607;48.302;14.294;2024-01-30T17:05:44;3.20;99.90
11107;DHT22;5607;48.302;14.294;2024-01-30T17:08:33;3.20;99.90
11107;DHT22;5607;48.302;14.294;2024-01-30T17:11:20;3.20;99.90
11107;DHT22;5607;48.302;14.294;2024-01-30T17:14:07;3.20;99.90
11107;DHT22;5607;48.302;14.294;2024-01-30T17:16:55;3.30;99.90
11107;DHT22;5607;48.302;14.294;2024-01-30T17:19:41;3.20;99.90
11107;DHT22;5607;48.302;14.294;2024-01-30T17:22:28;3.20;99.90
11107;DHT22;5607;48.302;14.294;2024-01-30T17:25:15;3.10;99.90
11107;DHT22;5607;48.302;14.294;2024-01-30T17:28:01;3.20;99.90
11107;DHT22;5607;48.302;14.294;2024-01-30T17:30:48;3.20;99.90
11107;DHT22;5607;48.302;14.294;2024-01-30T17:33:34;3.20;99.90
11107;DHT22;5607;48.302;14.294;2024-01-30T17:36:21;3.20;99.90
11107;DHT22;5607;48.302;14.294;2024-01-30T17:39:09;3.30;99.90
11107;DHT22;5607;48.302;14.294;2024-01-30T17:41:55;3.30;99.90
11107;DHT22;5607;48.302;14.294;2024-01-30T17:44:42;3.20;99.90
11107;DHT22;5607;48.302;14.294;2024-01-30T17:47:29;3.20;99.90
11107;DHT22;5607;48.302;14.294;2024-01-30T17:50:15;3.20;99.90
11107;DHT22;5607;48.302;14.294;2024-01-30T17:53:04;3.10;99.90
11107;DHT22;5607;48.302;14.294;2024-01-30T17:55:52;3.10;99.90
11107;DHT22;5607;48.302;14.294;2024-01-30T17:58:38;3.10;99.90
11107;DHT22;5607;48.302;14.294;2024-01-30T18:01:28;3.00;99.90
11107;DHT22;5607;48.302;14.294;2024-01-30T18:04:15;3.10;99.90
11107;DHT22;5607;48.302;14.294;2024-01-30T18:07:06;3.00;99.90
11107;DHT22;5607;48.302;14.294;2024-01-30T18:09:53;2.90;99.90